createdAt,value
2017-03-09T00:00:24.509Z,0
2017-03-09T00:01:24.478Z,0
2017-03-09T00:02:24.079Z,0
2017-03-09T00:03:24.074Z,0
2017-03-09T00:04:24.455Z,0
2017-03-09T00:05:24.395Z,0
2017-03-09T00:06:24.412Z,0
2017-03-09T00:07:23.982Z,0
2017-03-09T00:08:24.352Z,0
2017-03-09T00:09:24.326Z,0
2017-03-09T00:10:23.933Z,0
2017-03-09T00:11:24.334Z,0
2017-03-09T00:12:24.326Z,0
2017-03-09T00:13:24.293Z,0
2017-03-09T00:14:23.840Z,0
2017-03-09T00:15:24.218Z,0
2017-03-09T00:16:24.198Z,0
2017-03-09T00:17:24.194Z,0
2017-03-09T00:18:23.762Z,0
2017-03-09T00:19:24.177Z,0
2017-03-09T00:20:24.121Z,0
2017-03-09T00:21:24.113Z,0
2017-03-09T00:22:24.106Z,0
2017-03-09T00:23:23.294Z,0
2017-03-09T00:24:24.031Z,0
2017-03-09T00:25:23.275Z,0
2017-03-09T00:26:24.012Z,0
2017-03-09T00:27:23.986Z,0
2017-03-09T00:28:23.961Z,0
2017-03-09T00:29:23.953Z,0
2017-03-09T00:30:23.942Z,0
2017-03-09T00:31:23.899Z,0
2017-03-09T00:32:23.882Z,0
2017-03-09T00:33:23.480Z,0
2017-03-09T00:34:23.835Z,0
2017-03-09T00:35:23.414Z,0
2017-03-09T00:36:23.803Z,0
2017-03-09T00:37:23.781Z,0
2017-03-09T00:38:23.791Z,0
2017-03-09T00:39:23.734Z,0
2017-03-09T00:40:23.707Z,0
2017-03-09T00:41:23.687Z,0
2017-03-09T00:42:23.304Z,0
2017-03-09T00:43:23.268Z,0
2017-03-09T00:44:23.675Z,0
2017-03-09T00:45:23.651Z,0
2017-03-09T00:46:23.621Z,0
2017-03-09T00:47:23.603Z,0
2017-03-09T00:48:23.580Z,0
2017-03-09T00:49:23.552Z,0
2017-03-09T00:50:23.533Z,0
2017-03-09T00:51:23.525Z,0
2017-03-09T00:52:23.506Z,0
2017-03-09T00:53:23.476Z,0
2017-03-09T00:54:23.468Z,0
2017-03-09T00:55:23.435Z,0
2017-03-09T00:56:23.422Z,0
2017-03-09T00:57:23.406Z,0
2017-03-09T00:58:23.374Z,0
2017-03-09T00:59:23.356Z,0
2017-03-09T01:00:23.410Z,0
2017-03-09T01:01:23.360Z,0
2017-03-09T01:02:23.294Z,0
2017-03-09T01:03:23.276Z,0
2017-03-09T01:04:22.846Z,0
2017-03-09T01:05:23.249Z,0
2017-03-09T01:06:22.842Z,0
2017-03-09T01:07:23.200Z,0
2017-03-09T01:08:23.201Z,0
2017-03-09T01:09:23.139Z,0
2017-03-09T01:10:23.147Z,0
2017-03-09T01:11:22.732Z,0
2017-03-09T01:12:23.105Z,0
2017-03-09T01:13:23.090Z,0
2017-03-09T01:14:23.065Z,0
2017-03-09T01:15:23.040Z,0
2017-03-09T01:16:23.009Z,0
2017-03-09T01:17:23.024Z,0
2017-03-09T01:18:22.985Z,0
2017-03-09T01:19:22.971Z,0
2017-03-09T01:20:22.948Z,0
2017-03-09T01:21:22.914Z,0
2017-03-09T01:22:22.926Z,0
2017-03-09T01:23:22.904Z,0
2017-03-09T01:24:22.875Z,0
2017-03-09T01:25:22.840Z,0
2017-03-09T01:26:22.810Z,0
2017-03-09T01:27:22.788Z,0
2017-03-09T01:28:22.786Z,0
2017-03-09T01:29:22.760Z,0
2017-03-09T01:30:22.379Z,0
2017-03-09T01:31:22.712Z,0
2017-03-09T01:32:22.712Z,0
2017-03-09T01:33:22.683Z,0
2017-03-09T01:34:22.654Z,0
2017-03-09T01:35:22.649Z,0
2017-03-09T01:36:21.852Z,0
2017-03-09T01:37:22.639Z,0
2017-03-09T01:38:22.216Z,0
2017-03-09T01:39:22.566Z,0
2017-03-09T01:40:22.584Z,0
2017-03-09T01:41:22.542Z,0
2017-03-09T01:42:22.529Z,0
2017-03-09T01:43:22.491Z,0
2017-03-09T01:44:22.467Z,0
2017-03-09T01:45:22.430Z,0
2017-03-09T01:46:22.416Z,0
2017-03-09T01:47:22.401Z,0
2017-03-09T01:48:22.005Z,0
2017-03-09T01:49:22.372Z,0
2017-03-09T01:50:22.351Z,0
2017-03-09T01:51:21.950Z,0
2017-03-09T01:52:21.925Z,0
2017-03-09T01:53:21.912Z,0
2017-03-09T01:54:22.277Z,0
2017-03-09T01:55:22.264Z,0
2017-03-09T01:56:22.239Z,0
2017-03-09T01:57:22.233Z,0
2017-03-09T01:58:22.194Z,0
2017-03-09T01:59:22.171Z,0
2017-03-09T02:00:22.175Z,0
2017-03-09T02:01:22.149Z,0
2017-03-09T02:02:21.750Z,0
2017-03-09T02:03:22.104Z,0
2017-03-09T02:04:22.085Z,0
2017-03-09T02:05:21.665Z,0
2017-03-09T02:06:22.029Z,0
2017-03-09T02:07:21.631Z,0
2017-03-09T02:08:21.988Z,0
2017-03-09T02:09:21.981Z,0
2017-03-09T02:10:21.966Z,0
2017-03-09T02:11:21.944Z,0
2017-03-09T02:12:21.521Z,0
2017-03-09T02:13:21.905Z,0
2017-03-09T02:14:21.868Z,0
2017-03-09T02:15:21.859Z,0
2017-03-09T02:16:21.840Z,0
2017-03-09T02:17:21.825Z,0
2017-03-09T02:18:21.816Z,0
2017-03-09T02:19:21.397Z,0
2017-03-09T02:20:21.774Z,0
2017-03-09T02:21:21.339Z,0
2017-03-09T02:22:21.727Z,0
2017-03-09T02:23:21.754Z,0
2017-03-09T02:24:20.945Z,0
2017-03-09T02:25:21.276Z,0
2017-03-09T02:26:21.654Z,0
2017-03-09T02:27:21.612Z,0
2017-03-09T02:28:21.630Z,0
2017-03-09T02:29:21.219Z,0
2017-03-09T02:30:21.190Z,0
2017-03-09T02:31:21.543Z,0
2017-03-09T02:32:21.515Z,0
2017-03-09T02:33:21.506Z,0
2017-03-09T02:34:21.484Z,0
2017-03-09T02:35:21.460Z,0
2017-03-09T02:36:21.054Z,0
2017-03-09T02:37:21.410Z,0
2017-03-09T02:38:21.021Z,0
2017-03-09T02:39:21.399Z,0
2017-03-09T02:40:20.974Z,0
2017-03-09T02:41:21.351Z,0
2017-03-09T02:42:20.967Z,0
2017-03-09T02:43:20.920Z,0
2017-03-09T02:44:20.913Z,0
2017-03-09T02:45:21.278Z,0
2017-03-09T02:46:20.870Z,0
2017-03-09T02:47:20.854Z,0
2017-03-09T02:48:21.221Z,0
2017-03-09T02:49:20.811Z,0
2017-03-09T02:50:21.161Z,0
2017-03-09T02:51:20.799Z,0
2017-03-09T02:52:20.746Z,0
2017-03-09T02:53:20.732Z,0
2017-03-09T02:54:20.712Z,0
2017-03-09T02:55:20.681Z,0
2017-03-09T02:56:21.057Z,0
2017-03-09T02:57:21.045Z,0
2017-03-09T02:58:21.036Z,0
2017-03-09T02:59:20.991Z,0
2017-03-09T03:00:20.993Z,0
2017-03-09T03:01:20.954Z,0
2017-03-09T03:02:20.946Z,0
2017-03-09T03:03:20.520Z,0
2017-03-09T03:04:20.902Z,0
2017-03-09T03:05:20.912Z,0
2017-03-09T03:06:20.847Z,0
2017-03-09T03:07:20.839Z,0
2017-03-09T03:08:20.829Z,0
2017-03-09T03:09:20.799Z,0
2017-03-09T03:10:20.757Z,0
2017-03-09T03:11:20.779Z,0
2017-03-09T03:12:20.793Z,0
2017-03-09T03:13:20.772Z,0
2017-03-09T03:14:20.735Z,0
2017-03-09T03:15:20.690Z,0
2017-03-09T03:16:20.316Z,0
2017-03-09T03:17:20.642Z,0
2017-03-09T03:18:20.642Z,0
2017-03-09T03:19:20.620Z,0
2017-03-09T03:20:20.612Z,0
2017-03-09T03:21:20.548Z,0
2017-03-09T03:22:20.566Z,0
2017-03-09T03:23:20.526Z,0
2017-03-09T03:24:20.138Z,0
2017-03-09T03:25:20.491Z,0
2017-03-09T03:26:20.089Z,0
2017-03-09T03:27:20.065Z,0
2017-03-09T03:28:20.425Z,0
2017-03-09T03:29:20.412Z,0
2017-03-09T03:30:20.041Z,0
2017-03-09T03:31:20.397Z,0
2017-03-09T03:32:20.345Z,0
2017-03-09T03:33:19.978Z,0
2017-03-09T03:34:20.340Z,0
2017-03-09T03:35:20.315Z,0
2017-03-09T03:36:20.305Z,0
2017-03-09T03:37:20.257Z,0
2017-03-09T03:38:20.244Z,0
2017-03-09T03:39:20.237Z,0
2017-03-09T03:40:19.796Z,0
2017-03-09T03:41:19.789Z,0
2017-03-09T03:42:20.163Z,0
2017-03-09T03:43:20.147Z,0
2017-03-09T03:44:20.123Z,0
2017-03-09T03:45:20.108Z,0
2017-03-09T03:46:20.127Z,0
2017-03-09T03:47:20.089Z,0
2017-03-09T03:48:20.071Z,0
2017-03-09T03:49:20.043Z,0
2017-03-09T03:50:20.036Z,0
2017-03-09T03:51:20.015Z,0
2017-03-09T03:52:19.950Z,0
2017-03-09T03:53:20.002Z,0
2017-03-09T03:54:19.918Z,0
2017-03-09T03:55:19.919Z,0
2017-03-09T03:56:19.903Z,0
2017-03-09T03:57:19.870Z,0
2017-03-09T03:58:19.871Z,0
2017-03-09T03:59:19.822Z,0
2017-03-09T04:00:19.814Z,0
2017-03-09T04:01:19.801Z,0
2017-03-09T04:02:19.775Z,0
2017-03-09T04:03:19.768Z,0
2017-03-09T04:04:19.337Z,0
2017-03-09T04:05:19.346Z,0
2017-03-09T04:06:19.719Z,0
2017-03-09T04:07:19.704Z,0
2017-03-09T04:08:19.641Z,0
2017-03-09T04:09:19.659Z,0
2017-03-09T04:10:19.240Z,0
2017-03-09T04:11:19.235Z,0
2017-03-09T04:12:19.567Z,0
2017-03-09T04:13:19.164Z,0
2017-03-09T04:14:19.527Z,0
2017-03-09T04:15:19.539Z,0
2017-03-09T04:16:19.152Z,0
2017-03-09T04:17:19.518Z,0
2017-03-09T04:18:19.463Z,0
2017-03-09T04:19:19.441Z,0
2017-03-09T04:20:19.466Z,0
2017-03-09T04:21:18.638Z,0
2017-03-09T04:22:19.384Z,0
2017-03-09T04:23:19.373Z,0
2017-03-09T04:24:18.953Z,0
2017-03-09T04:25:19.322Z,0
2017-03-09T04:26:19.311Z,0
2017-03-09T04:27:19.293Z,0
2017-03-09T04:28:19.254Z,0
2017-03-09T04:29:19.262Z,0
2017-03-09T04:30:19.231Z,0
2017-03-09T04:31:18.811Z,0
2017-03-09T04:32:19.179Z,0
2017-03-09T04:33:19.180Z,0
2017-03-09T04:34:19.164Z,0
2017-03-09T04:35:19.119Z,0
2017-03-09T04:36:19.096Z,0
2017-03-09T04:37:19.079Z,0
2017-03-09T04:38:19.052Z,0
2017-03-09T04:39:19.052Z,0
2017-03-09T04:40:19.030Z,0
2017-03-09T04:41:19.022Z,0
2017-03-09T04:42:18.990Z,0
2017-03-09T04:43:18.960Z,0
2017-03-09T04:44:18.935Z,0
2017-03-09T04:45:18.933Z,0
2017-03-09T04:46:18.930Z,0
2017-03-09T04:47:18.893Z,0
2017-03-09T04:48:18.490Z,0
2017-03-09T04:49:18.863Z,0
2017-03-09T04:50:18.877Z,0
2017-03-09T04:51:18.053Z,0
2017-03-09T04:52:18.832Z,0
2017-03-09T04:53:17.999Z,0
2017-03-09T04:54:18.753Z,0
2017-03-09T04:55:17.969Z,0
2017-03-09T04:56:18.726Z,0
2017-03-09T04:57:18.709Z,0
2017-03-09T04:58:18.689Z,0
2017-03-09T04:59:18.675Z,0
2017-03-09T05:00:18.642Z,0
2017-03-09T05:01:18.618Z,0
2017-03-09T05:02:18.624Z,0
2017-03-09T05:03:18.214Z,0
2017-03-09T05:04:18.554Z,0
2017-03-09T05:05:18.165Z,0
2017-03-09T05:06:18.525Z,0
2017-03-09T05:07:18.525Z,0
2017-03-09T05:08:18.099Z,0
2017-03-09T05:09:18.120Z,0
2017-03-09T05:10:18.473Z,0
2017-03-09T05:11:18.421Z,0
2017-03-09T05:12:18.399Z,0
2017-03-09T05:13:18.376Z,0
2017-03-09T05:14:18.374Z,0
2017-03-09T05:15:18.358Z,4
2017-03-09T05:16:18.338Z,4
2017-03-09T05:17:18.308Z,4
2017-03-09T05:18:18.296Z,4
2017-03-09T05:19:18.294Z,4
2017-03-09T05:20:18.258Z,8
2017-03-09T05:21:18.260Z,8
2017-03-09T05:22:18.234Z,12
2017-03-09T05:23:17.819Z,12
2017-03-09T05:24:18.183Z,12
2017-03-09T05:25:18.149Z,16
2017-03-09T05:26:18.145Z,24
2017-03-09T05:27:18.103Z,24
2017-03-09T05:28:18.107Z,28
2017-03-09T05:29:18.114Z,36
2017-03-09T05:30:18.061Z,40
2017-03-09T05:31:18.051Z,52
2017-03-09T05:32:18.026Z,60
2017-03-09T05:33:18.001Z,80
2017-03-09T05:34:17.992Z,92
2017-03-09T05:35:17.974Z,116
2017-03-09T05:36:17.971Z,128
2017-03-09T05:37:17.969Z,144
2017-03-09T05:38:17.920Z,160
2017-03-09T05:39:17.891Z,176
2017-03-09T05:40:17.882Z,184
2017-03-09T05:41:17.467Z,200
2017-03-09T05:42:32.372Z,228
2017-03-09T05:43:17.822Z,240
2017-03-09T05:44:18.020Z,260
2017-03-09T05:45:17.789Z,276
2017-03-09T05:46:17.778Z,300
2017-03-09T05:47:17.756Z,336
2017-03-09T05:48:17.739Z,376
2017-03-09T05:49:17.702Z,412
2017-03-09T05:50:17.701Z,436
2017-03-09T05:51:17.670Z,456
2017-03-09T05:52:17.678Z,488
2017-03-09T05:53:17.627Z,532
2017-03-09T05:54:17.626Z,576
2017-03-09T05:55:17.600Z,640
2017-03-09T05:56:17.584Z,732
2017-03-09T05:57:17.545Z,864
2017-03-09T05:58:17.175Z,988
2017-03-09T05:59:17.517Z,1060
2017-03-09T06:00:17.526Z,1080
2017-03-09T06:01:17.471Z,1152
2017-03-09T06:02:17.488Z,1332
2017-03-09T06:03:17.501Z,1516
2017-03-09T06:04:17.435Z,1640
2017-03-09T06:05:17.438Z,1608
2017-03-09T06:06:17.390Z,1508
2017-03-09T06:07:30.629Z,1464
2017-03-09T06:08:17.336Z,1512
2017-03-09T06:09:16.973Z,1676
2017-03-09T06:10:16.946Z,1904
2017-03-09T06:11:17.302Z,2136
2017-03-09T06:12:17.494Z,2352
2017-03-09T06:13:17.275Z,2476
2017-03-09T06:14:16.868Z,2492
2017-03-09T06:15:17.233Z,2504
2017-03-09T06:16:17.223Z,2500
2017-03-09T06:17:17.199Z,2356
2017-03-09T06:18:30.530Z,2112
2017-03-09T06:19:30.776Z,2016
2017-03-09T06:20:16.788Z,2032
2017-03-09T06:21:17.165Z,1976
2017-03-09T06:22:17.104Z,1948
2017-03-09T06:23:17.109Z,1996
2017-03-09T06:24:17.267Z,2208
2017-03-09T06:25:17.027Z,2440
2017-03-09T06:26:17.027Z,2604
2017-03-09T06:27:17.004Z,2740
2017-03-09T06:28:17.003Z,2860
2017-03-09T06:29:16.966Z,2976
2017-03-09T06:30:16.952Z,3000
2017-03-09T06:31:16.946Z,3032
2017-03-09T06:32:16.914Z,3104
2017-03-09T06:33:16.892Z,3208
2017-03-09T06:34:16.890Z,3308
2017-03-09T06:35:16.887Z,3512
2017-03-09T06:36:16.829Z,3728
2017-03-09T06:37:16.827Z,3944
2017-03-09T06:38:16.427Z,4000
2017-03-09T06:39:16.766Z,3996
2017-03-09T06:40:16.760Z,4068
2017-03-09T06:41:16.759Z,4128
2017-03-09T06:42:16.728Z,4128
2017-03-09T06:43:16.717Z,4084
2017-03-09T06:44:16.674Z,4036
2017-03-09T06:45:16.681Z,3976
2017-03-09T06:46:16.652Z,3968
2017-03-09T06:47:30.038Z,4016
2017-03-09T06:48:29.895Z,4108
2017-03-09T06:49:16.607Z,4316
2017-03-09T06:50:16.618Z,4660
2017-03-09T06:51:16.800Z,5080
2017-03-09T06:52:16.359Z,5408
2017-03-09T06:53:29.789Z,5792
2017-03-09T06:54:16.508Z,5976
2017-03-09T06:55:16.485Z,6252
2017-03-09T06:56:16.502Z,6320
2017-03-09T06:57:16.454Z,6320
2017-03-09T06:58:16.652Z,6540
2017-03-09T06:59:16.220Z,6828
2017-03-09T07:00:16.449Z,7208
2017-03-09T07:01:16.387Z,7332
2017-03-09T07:02:16.375Z,7576
2017-03-09T07:03:16.339Z,7808
2017-03-09T07:04:16.347Z,8044
2017-03-09T07:05:16.296Z,8220
2017-03-09T07:06:16.296Z,8204
2017-03-09T07:07:16.259Z,7732
2017-03-09T07:08:16.251Z,7340
2017-03-09T07:09:16.251Z,7404
2017-03-09T07:10:16.232Z,7492
2017-03-09T07:11:16.192Z,7692
2017-03-09T07:12:16.180Z,7708
2017-03-09T07:13:16.176Z,7508
2017-03-09T07:14:16.155Z,7384
2017-03-09T07:15:16.110Z,7616
2017-03-09T07:16:16.107Z,8252
2017-03-09T07:17:16.120Z,8480
2017-03-09T07:18:16.101Z,8220
2017-03-09T07:19:16.052Z,7832
2017-03-09T07:20:16.007Z,7272
2017-03-09T07:21:16.021Z,6832
2017-03-09T07:22:29.654Z,6836
2017-03-09T07:23:15.995Z,7256
2017-03-09T07:24:15.944Z,8076
2017-03-09T07:25:15.937Z,8376
2017-03-09T07:26:15.904Z,8656
2017-03-09T07:27:16.114Z,9700
2017-03-09T07:28:15.901Z,11084
2017-03-09T07:29:15.885Z,12488
2017-03-09T07:30:15.841Z,13332
2017-03-09T07:31:15.861Z,13612
2017-03-09T07:32:15.417Z,13528
2017-03-09T07:33:15.982Z,13460
2017-03-09T07:34:15.986Z,13296
2017-03-09T07:35:15.748Z,12504
2017-03-09T07:36:15.732Z,11484
2017-03-09T07:37:15.720Z,11396
2017-03-09T07:38:15.691Z,12272
2017-03-09T07:39:15.662Z,12604
2017-03-09T07:40:15.701Z,12564
2017-03-09T07:41:15.657Z,12880
2017-03-09T07:42:15.659Z,13300
2017-03-09T07:43:15.605Z,13500
2017-03-09T07:44:15.604Z,13400
2017-03-09T07:45:15.598Z,13348
2017-03-09T07:46:15.552Z,13952
2017-03-09T07:47:15.534Z,14584
2017-03-09T07:48:15.555Z,14720
2017-03-09T07:49:15.521Z,14084
2017-03-09T07:50:15.478Z,13516
2017-03-09T07:51:15.470Z,13692
2017-03-09T07:52:15.432Z,14264
2017-03-09T07:53:15.441Z,14872
2017-03-09T07:54:15.406Z,15156
2017-03-09T07:55:15.399Z,14800
2017-03-09T07:56:15.412Z,14736
2017-03-09T07:57:15.359Z,14820
2017-03-09T07:58:15.345Z,14384
2017-03-09T07:59:15.343Z,13908
2017-03-09T08:00:14.923Z,14084
2017-03-09T08:01:15.303Z,14324
2017-03-09T08:02:15.298Z,14680
2017-03-09T08:03:15.449Z,14580
2017-03-09T08:04:14.833Z,14412
2017-03-09T08:05:15.224Z,14720
2017-03-09T08:06:15.204Z,14372
2017-03-09T08:07:15.162Z,13632
2017-03-09T08:08:15.173Z,13552
2017-03-09T08:09:15.140Z,13936
2017-03-09T08:10:15.117Z,14324
2017-03-09T08:11:15.102Z,15236
2017-03-09T08:12:15.084Z,16804
2017-03-09T08:13:15.063Z,18028
2017-03-09T08:14:15.061Z,18912
2017-03-09T08:15:15.051Z,19712
2017-03-09T08:16:15.041Z,20672
2017-03-09T08:17:14.984Z,20864
2017-03-09T08:18:14.990Z,20544
2017-03-09T08:19:14.576Z,20064
2017-03-09T08:20:14.930Z,20160
2017-03-09T08:21:14.540Z,20320
2017-03-09T08:22:14.919Z,20192
2017-03-09T08:23:14.887Z,19872
2017-03-09T08:24:14.896Z,19360
2017-03-09T08:25:14.903Z,19488
2017-03-09T08:26:14.858Z,19968
2017-03-09T08:27:14.818Z,20032
2017-03-09T08:28:14.396Z,19456
2017-03-09T08:29:14.785Z,19008
2017-03-09T08:30:14.757Z,18976
2017-03-09T08:31:14.749Z,18944
2017-03-09T08:32:14.719Z,18272
2017-03-09T08:33:14.752Z,17428
2017-03-09T08:34:14.688Z,17188
2017-03-09T08:35:14.684Z,17188
2017-03-09T08:36:14.289Z,16928
2017-03-09T08:37:14.833Z,16704
2017-03-09T08:40:14.601Z,16980
2017-03-09T08:41:14.213Z,17800
2017-03-09T08:42:14.560Z,19040
2017-03-09T08:43:14.566Z,19840
2017-03-09T08:44:14.507Z,19904
2017-03-09T08:45:14.518Z,20416
2017-03-09T08:47:14.460Z,20672
2017-03-09T08:48:14.448Z,21504
2017-03-09T08:49:14.031Z,22592
2017-03-09T08:50:14.417Z,22912
2017-03-09T08:51:14.387Z,22592
2017-03-09T08:52:14.374Z,22080
2017-03-09T08:53:14.364Z,22048
2017-03-09T08:54:14.358Z,21984
2017-03-09T08:55:14.356Z,22176
2017-03-09T08:56:14.288Z,22752
2017-03-09T08:57:14.308Z,23328
2017-03-09T08:58:14.288Z,24032
2017-03-09T08:59:14.264Z,24096
2017-03-09T09:00:14.231Z,24160
2017-03-09T09:01:14.249Z,23840
2017-03-09T09:02:14.205Z,24096
2017-03-09T09:03:14.166Z,23616
2017-03-09T09:04:14.164Z,22624
2017-03-09T09:05:14.140Z,22752
2017-03-09T09:06:14.154Z,23200
2017-03-09T09:07:14.150Z,24000
2017-03-09T09:08:13.718Z,23456
2017-03-09T09:09:14.095Z,26336
2017-03-09T09:10:14.066Z,26368
2017-03-09T09:11:14.074Z,27904
2017-03-09T09:12:13.649Z,26784
2017-03-09T09:13:13.999Z,26656
2017-03-09T09:14:13.972Z,28352
2017-03-09T09:15:13.973Z,30944
2017-03-09T09:16:13.967Z,29248
2017-03-09T09:17:13.946Z,28960
2017-03-09T09:18:13.544Z,27232
2017-03-09T09:19:13.911Z,28704
2017-03-09T09:20:13.889Z,28576
2017-03-09T09:21:13.869Z,28704
2017-03-09T09:22:13.850Z,30656
2017-03-09T09:23:13.826Z,28864
2017-03-09T09:24:13.811Z,28608
2017-03-09T09:25:13.820Z,28800
2017-03-09T09:26:13.775Z,27328
2017-03-09T09:27:13.799Z,24608
2017-03-09T09:28:13.784Z,22240
2017-03-09T09:29:13.780Z,21984
2017-03-09T09:30:13.713Z,21312
2017-03-09T09:31:13.716Z,21536
2017-03-09T09:32:13.317Z,22752
2017-03-09T09:33:13.684Z,23136
2017-03-09T09:34:13.677Z,23392
2017-03-09T09:35:13.651Z,23136
2017-03-09T09:36:13.598Z,23744
2017-03-09T09:37:13.640Z,22304
2017-03-09T09:38:13.588Z,21056
2017-03-09T09:39:13.588Z,21344
2017-03-09T09:40:13.173Z,21952
2017-03-09T09:41:13.557Z,21856
2017-03-09T09:42:13.542Z,20704
2017-03-09T09:43:13.497Z,19840
2017-03-09T09:44:13.499Z,19904
2017-03-09T09:45:13.475Z,20672
2017-03-09T09:46:13.479Z,21824
2017-03-09T09:47:13.443Z,21472
2017-03-09T09:48:13.410Z,20384
2017-03-09T09:49:13.423Z,20000
2017-03-09T09:50:13.013Z,19520
2017-03-09T09:51:13.356Z,19744
2017-03-09T09:52:13.383Z,20576
2017-03-09T09:54:13.324Z,20672
2017-03-09T09:55:13.338Z,20032
2017-03-09T09:56:12.924Z,19616
2017-03-09T09:57:13.276Z,19584
2017-03-09T09:58:12.886Z,19904
2017-03-09T09:59:13.258Z,19264
2017-03-09T10:00:13.241Z,18880
2017-03-09T10:01:13.219Z,18400
2017-03-09T10:02:13.202Z,18400
2017-03-09T10:03:13.181Z,17756
2017-03-09T10:04:13.161Z,17616
2017-03-09T10:05:13.165Z,18240
2017-03-09T10:06:13.166Z,17680
2017-03-09T10:07:13.144Z,17136
2017-03-09T10:08:12.714Z,16356
2017-03-09T10:09:13.097Z,15828
2017-03-09T10:10:12.705Z,15556
2017-03-09T10:11:13.066Z,15416
2017-03-09T10:12:13.052Z,15192
2017-03-09T10:13:12.655Z,14820
2017-03-09T10:14:13.027Z,14708
2017-03-09T10:15:13.030Z,14552
2017-03-09T10:16:12.592Z,14372
2017-03-09T10:17:12.981Z,14328
2017-03-09T10:18:12.567Z,14296
2017-03-09T10:19:12.961Z,14348
2017-03-09T10:20:12.924Z,14432
2017-03-09T10:21:12.916Z,14196
2017-03-09T10:22:12.895Z,13720
2017-03-09T10:23:12.859Z,13244
2017-03-09T10:24:12.847Z,13132
2017-03-09T10:25:12.846Z,12960
2017-03-09T10:26:12.876Z,12596
2017-03-09T10:27:12.805Z,12292
2017-03-09T10:28:12.424Z,12088
2017-03-09T10:29:12.757Z,11524
2017-03-09T10:30:12.364Z,11244
2017-03-09T10:31:12.763Z,11140
2017-03-09T10:32:12.753Z,11304
2017-03-09T10:33:12.722Z,11556
2017-03-09T10:34:12.699Z,11660
2017-03-09T10:35:12.682Z,11828
2017-03-09T10:36:12.275Z,12196
2017-03-09T10:37:12.646Z,12260
2017-03-09T10:38:12.628Z,12184
2017-03-09T10:39:12.628Z,12280
2017-03-09T10:40:12.603Z,12160
2017-03-09T10:41:12.588Z,12012
2017-03-09T10:42:12.553Z,12024
2017-03-09T10:43:12.578Z,11856
2017-03-09T10:44:12.148Z,11928
2017-03-09T10:45:12.538Z,12176
2017-03-09T10:46:12.492Z,12476
2017-03-09T10:47:12.491Z,12340
2017-03-09T10:48:12.477Z,12432
2017-03-09T10:49:12.454Z,12548
2017-03-09T10:50:12.450Z,12512
2017-03-09T10:51:12.029Z,11944
2017-03-09T10:52:12.034Z,12048
2017-03-09T10:53:12.390Z,12784
2017-03-09T10:54:12.389Z,13024
2017-03-09T10:55:12.350Z,13032
2017-03-09T10:56:12.338Z,12744
2017-03-09T10:57:12.344Z,12548
2017-03-09T10:58:12.330Z,12788
2017-03-09T10:59:12.274Z,12900
2017-03-09T11:00:12.310Z,12652
2017-03-09T11:01:12.290Z,12500
2017-03-09T11:02:11.878Z,12604
2017-03-09T11:03:12.215Z,12808
2017-03-09T11:04:12.205Z,12940
2017-03-09T11:05:12.207Z,12760
2017-03-09T11:06:11.770Z,12376
2017-03-09T11:07:12.189Z,12412
2017-03-09T11:08:12.147Z,12324
2017-03-09T11:09:12.103Z,12128
2017-03-09T11:10:12.160Z,11952
2017-03-09T11:11:12.124Z,11620
2017-03-09T11:12:11.709Z,11632
2017-03-09T11:13:12.065Z,11824
2017-03-09T11:14:12.040Z,12064
2017-03-09T11:15:12.013Z,12024
2017-03-09T11:16:12.011Z,12364
2017-03-09T11:17:11.999Z,12592
2017-03-09T11:18:11.995Z,12644
2017-03-09T11:19:11.965Z,12884
2017-03-09T11:20:11.947Z,13032
2017-03-09T11:21:11.915Z,13320
2017-03-09T11:22:11.901Z,13280
2017-03-09T11:23:11.906Z,13244
2017-03-09T11:24:11.875Z,13416
2017-03-09T11:25:11.456Z,13252
2017-03-09T11:26:11.467Z,13732
2017-03-09T11:27:11.829Z,13836
2017-03-09T11:28:11.794Z,14404
2017-03-09T11:29:11.800Z,14736
2017-03-09T11:30:11.777Z,15060
2017-03-09T11:31:11.749Z,15100
2017-03-09T11:32:11.372Z,14988
2017-03-09T11:33:11.713Z,14956
2017-03-09T11:34:11.697Z,14660
2017-03-09T11:35:10.909Z,14392
2017-03-09T11:36:11.664Z,13948
2017-03-09T11:37:11.656Z,13944
2017-03-09T11:38:11.651Z,14280
2017-03-09T11:39:11.622Z,14708
2017-03-09T11:40:11.607Z,14732
2017-03-09T11:41:11.578Z,14368
2017-03-09T11:42:11.188Z,13600
2017-03-09T11:43:11.537Z,13528
2017-03-09T11:44:11.544Z,13412
2017-03-09T11:45:11.520Z,13692
2017-03-09T11:46:11.578Z,13988
2017-03-09T11:47:11.487Z,14292
2017-03-09T11:48:11.069Z,14508
2017-03-09T11:49:11.472Z,14708
2017-03-09T11:50:11.037Z,15048
2017-03-09T11:51:11.436Z,15608
2017-03-09T11:52:10.993Z,15708
2017-03-09T11:53:11.375Z,16988
2017-03-09T11:54:11.426Z,19584
2017-03-09T11:55:11.387Z,19456
2017-03-09T11:56:11.324Z,19168
2017-03-09T11:57:10.950Z,19328
2017-03-09T11:58:11.274Z,20352
2017-03-09T11:59:11.287Z,20256
2017-03-09T12:00:11.263Z,19712
2017-03-09T12:01:11.252Z,19936
2017-03-09T12:02:10.839Z,20384
2017-03-09T12:03:11.202Z,21440
2017-03-09T12:04:11.199Z,21248
2017-03-09T12:05:10.778Z,21376
2017-03-09T12:06:11.144Z,20544
2017-03-09T12:07:11.137Z,20768
2017-03-09T12:08:11.129Z,20800
2017-03-09T12:09:11.116Z,20544
2017-03-09T12:10:11.114Z,20032
2017-03-09T12:11:11.089Z,22976
2017-03-09T12:12:10.670Z,24800
2017-03-09T12:13:11.034Z,24704
2017-03-09T12:14:11.004Z,25280
2017-03-09T12:15:11.008Z,27008
2017-03-09T12:16:10.985Z,27936
2017-03-09T12:17:10.965Z,27520
2017-03-09T12:18:10.973Z,26752
2017-03-09T12:19:10.948Z,25696
2017-03-09T12:20:10.918Z,26688
2017-03-09T12:21:10.891Z,26912
2017-03-09T12:22:10.486Z,28096
2017-03-09T12:23:10.845Z,28736
2017-03-09T12:24:10.815Z,29824
2017-03-09T12:25:10.828Z,31456
2017-03-09T12:26:10.423Z,32384
2017-03-09T12:27:10.769Z,32288
2017-03-09T12:28:10.811Z,33536
2017-03-09T12:29:10.762Z,35328
2017-03-09T12:30:10.734Z,35424
2017-03-09T12:31:10.722Z,35072
2017-03-09T12:32:10.687Z,35232
2017-03-09T12:33:10.715Z,35360
2017-03-09T12:34:10.672Z,35776
2017-03-09T12:35:10.266Z,35424
2017-03-09T12:36:10.237Z,35776
2017-03-09T12:37:10.209Z,37792
2017-03-09T12:38:10.572Z,38624
2017-03-09T12:39:10.165Z,39840
2017-03-09T12:40:09.766Z,41376
2017-03-09T12:41:10.130Z,41824
2017-03-09T12:42:10.126Z,40256
2017-03-09T12:43:10.498Z,39680
2017-03-09T12:44:10.474Z,40032
2017-03-09T12:45:10.081Z,40576
2017-03-09T12:46:10.056Z,40128
2017-03-09T12:47:10.440Z,39168
2017-03-09T12:48:09.644Z,38144
2017-03-09T12:49:10.402Z,37184
2017-03-09T12:50:09.990Z,38144
2017-03-09T12:51:10.348Z,38208
2017-03-09T12:52:09.971Z,37376
2017-03-09T12:53:10.346Z,36576
2017-03-09T12:54:10.274Z,36448
2017-03-09T12:55:10.281Z,36864
2017-03-09T12:56:10.291Z,36480
2017-03-09T12:57:10.262Z,35520
2017-03-09T12:58:10.210Z,35360
2017-03-09T12:59:10.193Z,34944
2017-03-09T13:00:09.791Z,34368
2017-03-09T13:01:10.152Z,33472
2017-03-09T13:02:10.179Z,32288
2017-03-09T13:03:10.134Z,31680
2017-03-09T13:04:10.094Z,32064
2017-03-09T13:05:10.117Z,31744
2017-03-09T13:06:10.075Z,30976
2017-03-09T13:07:10.082Z,29856
2017-03-09T13:08:10.032Z,29408
2017-03-09T13:09:10.056Z,29120
2017-03-09T13:10:09.992Z,28960
2017-03-09T13:11:09.997Z,29344
2017-03-09T13:12:10.001Z,29696
2017-03-09T13:13:09.960Z,30592
2017-03-09T13:14:09.936Z,31168
2017-03-09T13:15:09.923Z,30944
2017-03-09T13:16:09.875Z,30848
2017-03-09T13:17:09.860Z,30944
2017-03-09T13:18:09.830Z,30816
2017-03-09T13:19:09.877Z,30784
2017-03-09T13:20:09.816Z,30944
2017-03-09T13:21:09.791Z,30944
2017-03-09T13:22:09.809Z,30400
2017-03-09T13:23:09.393Z,29600
2017-03-09T13:24:09.748Z,30368
2017-03-09T13:25:09.733Z,30240
2017-03-09T13:26:09.337Z,30240
2017-03-09T13:27:09.309Z,30496
2017-03-09T13:28:09.693Z,29600
2017-03-09T13:29:09.669Z,29088
2017-03-09T13:30:09.242Z,29568
2017-03-09T13:31:09.232Z,28544
2017-03-09T13:32:09.609Z,27744
2017-03-09T13:33:09.579Z,26784
2017-03-09T13:34:09.565Z,27392
2017-03-09T13:35:09.516Z,27008
2017-03-09T13:36:09.555Z,26816
2017-03-09T13:37:09.493Z,26400
2017-03-09T13:38:09.129Z,26880
2017-03-09T13:39:09.482Z,27040
2017-03-09T13:40:09.458Z,27648
2017-03-09T13:41:09.434Z,28000
2017-03-09T13:42:09.432Z,28256
2017-03-09T13:43:09.379Z,27488